Main page
METAR-TAF:

METAR-TAF

Airports :

Al Qaisumah/Hafr Al Batin Airport

Qaisumah, Saudi Arabia

latitude: 28-19N, longitude: 046-07E, elevation: 358 m

Current weather observation

The report was made 1 hour and 7 minutes ago, at 16:00 UTC
Wind 7 kt from the Southeast
Temperature 32°C
Humidity 23%
Pressure 1012 hPa
Visibility 10 km or more
no clouds below 1500 m and no cumulonimbus

METAR: OEPA 181600Z 14007KT CAVOK 32/08 Q1012 NOSIG

Time: 20:07 (17:07 UTC)

Forecast

The report was made 6 hours and 7 minutes ago, at 11:00 UTC
Forecast valid from 18 at 12 UTC to 19 at 18 UTC
Wind 13 kt from the East
Visibility: 8000 m
Temporary
from 18 at 12 UTC to 18 at 20 UTC
Visibility: 4000 m
Few clouds at a height of 4000 ft
Scattered clouds at a height of 10000 ft
widespread dust, Blowing dust
Becoming
from 18 at 20 UTC to 18 at 22 UTC
Wind 10 kt from the Southeast

TAF: OEPA 181100Z 1812/1918 09013KT 8000 NSC TEMPO 1812/1820 4000 DU BLDU FEW040 SCT100 BECMG 1820/1822 14010KT

Weather observations and forecasts of more than 4000 airports (METAR and TAF reports).

The available stations are represented by yellow and red dots on the map.

Hover mouse over dot to see the name of the station.

Then click to see weather observations and forecasts.

To change the map : click on the green buttons with a black cross to zoom in, on the green button with a dash to zoom out, or on the green arrows for adjacent maps.


METAR-TAF: